sensor_id;sensor_type;location;lat;lon;timestamp;P1;durP1;ratioP1;P2;durP2;ratioP2
26690;SDS011;14307;51.718;8.938;2023-06-19T00:00:28;32.78;;;30.33;;
26690;SDS011;14307;51.718;8.938;2023-06-19T00:02:57;32.63;;;30.17;;
26690;SDS011;14307;51.718;8.938;2023-06-19T00:05:24;32.63;;;30.02;;
26690;SDS011;14307;51.718;8.938;2023-06-19T00:07:51;33.22;;;30.65;;
26690;SDS011;14307;51.718;8.938;2023-06-19T00:10:18;32.88;;;30.30;;
26690;SDS011;14307;51.718;8.938;2023-06-19T00:12:45;32.70;;;30.02;;
26690;SDS011;14307;51.718;8.938;2023-06-19T00:15:12;33.08;;;30.50;;
26690;SDS011;14307;51.718;8.938;2023-06-19T00:17:39;32.20;;;29.70;;
26690;SDS011;14307;51.718;8.938;2023-06-19T00:20:06;32.63;;;30.20;;
26690;SDS011;14307;51.718;8.938;2023-06-19T00:22:33;32.97;;;30.48;;
26690;SDS011;14307;51.718;8.938;2023-06-19T00:25:00;32.90;;;30.40;;
26690;SDS011;14307;51.718;8.938;2023-06-19T00:27:26;32.53;;;30.02;;
26690;SDS011;14307;51.718;8.938;2023-06-19T00:29:53;33.28;;;30.77;;
26690;SDS011;14307;51.718;8.938;2023-06-19T00:32:20;33.55;;;31.02;;
26690;SDS011;14307;51.718;8.938;2023-06-19T00:34:47;32.15;;;29.80;;
26690;SDS011;14307;51.718;8.938;2023-06-19T00:37:14;32.75;;;30.42;;
26690;SDS011;14307;51.718;8.938;2023-06-19T00:39:41;33.72;;;31.10;;
26690;SDS011;14307;51.718;8.938;2023-06-19T00:42:10;33.80;;;31.30;;
26690;SDS011;14307;51.718;8.938;2023-06-19T00:44:37;34.15;;;31.65;;
26690;SDS011;14307;51.718;8.938;2023-06-19T00:47:04;33.95;;;31.45;;
26690;SDS011;14307;51.718;8.938;2023-06-19T00:49:31;34.10;;;31.38;;
26690;SDS011;14307;51.718;8.938;2023-06-19T00:51:58;33.53;;;31.10;;
26690;SDS011;14307;51.718;8.938;2023-06-19T00:54:25;35.75;;;33.13;;
26690;SDS011;14307;51.718;8.938;2023-06-19T00:56:51;34.63;;;32.03;;
26690;SDS011;14307;51.718;8.938;2023-06-19T00:59:19;34.30;;;31.40;;
26690;SDS011;14307;51.718;8.938;2023-06-19T01:01:46;34.65;;;31.92;;
26690;SDS011;14307;51.718;8.938;2023-06-19T01:04:13;34.78;;;32.08;;
26690;SDS011;14307;51.718;8.938;2023-06-19T01:09:16;33.65;;;31.13;;
26690;SDS011;14307;51.718;8.938;2023-06-19T01:11:46;34.10;;;31.50;;
26690;SDS011;14307;51.718;8.938;2023-06-19T01:14:21;33.90;;;31.30;;
26690;SDS011;14307;51.718;8.938;2023-06-19T01:16:57;34.45;;;31.75;;
26690;SDS011;14307;51.718;8.938;2023-06-19T01:19:24;34.38;;;31.67;;
26690;SDS011;14307;51.718;8.938;2023-06-19T01:21:51;34.70;;;31.75;;
26690;SDS011;14307;51.718;8.938;2023-06-19T01:24:18;35.65;;;32.85;;
26690;SDS011;14307;51.718;8.938;2023-06-19T01:26:45;34.80;;;32.00;;
26690;SDS011;14307;51.718;8.938;2023-06-19T01:29:15;34.72;;;31.40;;
26690;SDS011;14307;51.718;8.938;2023-06-19T01:31:45;34.03;;;31.10;;
26690;SDS011;14307;51.718;8.938;2023-06-19T01:34:15;34.88;;;32.03;;
26690;SDS011;14307;51.718;8.938;2023-06-19T01:36:45;34.17;;;31.45;;
26690;SDS011;14307;51.718;8.938;2023-06-19T01:39:16;34.88;;;31.67;;
26690;SDS011;14307;51.718;8.938;2023-06-19T01:41:44;34.03;;;31.38;;
26690;SDS011;14307;51.718;8.938;2023-06-19T01:44:12;34.97;;;32.28;;
26690;SDS011;14307;51.718;8.938;2023-06-19T01:46:39;34.22;;;31.63;;
26690;SDS011;14307;51.718;8.938;2023-06-19T01:49:09;33.88;;;31.08;;
26690;SDS011;14307;51.718;8.938;2023-06-19T01:51:36;33.47;;;30.98;;
26690;SDS011;14307;51.718;8.938;2023-06-19T01:54:03;33.63;;;31.02;;
26690;SDS011;14307;51.718;8.938;2023-06-19T01:56:30;34.58;;;31.88;;
26690;SDS011;14307;51.718;8.938;2023-06-19T01:58:57;34.15;;;31.50;;
26690;SDS011;14307;51.718;8.938;2023-06-19T02:01:24;33.83;;;31.13;;
26690;SDS011;14307;51.718;8.938;2023-06-19T02:03:51;33.00;;;30.42;;
26690;SDS011;14307;51.718;8.938;2023-06-19T02:06:18;34.17;;;30.63;;
26690;SDS011;14307;51.718;8.938;2023-06-19T02:08:46;33.78;;;31.08;;
26690;SDS011;14307;51.718;8.938;2023-06-19T02:11:12;34.90;;;32.00;;
26690;SDS011;14307;51.718;8.938;2023-06-19T02:13:39;35.10;;;32.13;;
26690;SDS011;14307;51.718;8.938;2023-06-19T02:16:09;34.38;;;31.67;;
26690;SDS011;14307;51.718;8.938;2023-06-19T02:18:36;35.00;;;32.20;;
26690;SDS011;14307;51.718;8.938;2023-06-19T02:21:02;34.45;;;31.75;;
26690;SDS011;14307;51.718;8.938;2023-06-19T02:23:29;34.60;;;31.80;;
26690;SDS011;14307;51.718;8.938;2023-06-19T02:25:56;32.90;;;30.30;;
26690;SDS011;14307;51.718;8.938;2023-06-19T02:28:23;34.83;;;31.83;;
26690;SDS011;14307;51.718;8.938;2023-06-19T02:30:49;35.13;;;32.30;;
26690;SDS011;14307;51.718;8.938;2023-06-19T02:33:17;34.55;;;31.75;;
26690;SDS011;14307;51.718;8.938;2023-06-19T02:35:44;35.13;;;32.17;;
26690;SDS011;14307;51.718;8.938;2023-06-19T02:38:11;34.92;;;32.03;;
26690;SDS011;14307;51.718;8.938;2023-06-19T02:40:41;34.78;;;31.88;;
26690;SDS011;14307;51.718;8.938;2023-06-19T02:43:09;35.88;;;33.03;;
26690;SDS011;14307;51.718;8.938;2023-06-19T02:45:36;34.92;;;32.17;;
26690;SDS011;14307;51.718;8.938;2023-06-19T02:48:02;36.22;;;33.13;;
26690;SDS011;14307;51.718;8.938;2023-06-19T02:50:31;35.50;;;32.42;;
26690;SDS011;14307;51.718;8.938;2023-06-19T02:52:58;34.53;;;31.52;;
26690;SDS011;14307;51.718;8.938;2023-06-19T02:55:25;36.03;;;33.10;;
26690;SDS011;14307;51.718;8.938;2023-06-19T02:57:51;36.53;;;33.38;;
26690;SDS011;14307;51.718;8.938;2023-06-19T03:00:18;35.63;;;32.80;;
26690;SDS011;14307;51.718;8.938;2023-06-19T03:02:46;36.80;;;33.80;;
26690;SDS011;14307;51.718;8.938;2023-06-19T03:05:14;36.00;;;33.05;;
26690;SDS011;14307;51.718;8.938;2023-06-19T03:07:42;36.75;;;33.60;;
26690;SDS011;14307;51.718;8.938;2023-06-19T03:10:09;36.88;;;33.70;;
26690;SDS011;14307;51.718;8.938;2023-06-19T03:12:36;36.30;;;33.30;;
26690;SDS011;14307;51.718;8.938;2023-06-19T03:15:03;33.83;;;31.10;;
26690;SDS011;14307;51.718;8.938;2023-06-19T03:17:33;37.20;;;33.92;;
26690;SDS011;14307;51.718;8.938;2023-06-19T03:19:59;35.22;;;32.22;;
26690;SDS011;14307;51.718;8.938;2023-06-19T03:22:26;34.25;;;31.60;;
26690;SDS011;14307;51.718;8.938;2023-06-19T03:24:53;40.60;;;37.53;;
26690;SDS011;14307;51.718;8.938;2023-06-19T03:27:20;34.40;;;31.80;;
26690;SDS011;14307;51.718;8.938;2023-06-19T03:29:47;34.33;;;31.58;;
26690;SDS011;14307;51.718;8.938;2023-06-19T03:32:20;34.38;;;31.67;;
26690;SDS011;14307;51.718;8.938;2023-06-19T03:34:48;34.55;;;31.75;;
26690;SDS011;14307;51.718;8.938;2023-06-19T03:37:15;35.13;;;32.33;;
26690;SDS011;14307;51.718;8.938;2023-06-19T03:39:42;34.88;;;32.08;;
26690;SDS011;14307;51.718;8.938;2023-06-19T03:42:10;35.30;;;32.40;;
26690;SDS011;14307;51.718;8.938;2023-06-19T03:44:37;35.33;;;32.20;;
26690;SDS011;14307;51.718;8.938;2023-06-19T03:47:05;42.20;;;39.30;;
26690;SDS011;14307;51.718;8.938;2023-06-19T03:49:32;34.20;;;31.55;;
26690;SDS011;14307;51.718;8.938;2023-06-19T03:51:59;34.95;;;32.25;;
26690;SDS011;14307;51.718;8.938;2023-06-19T03:54:26;35.70;;;32.70;;
26690;SDS011;14307;51.718;8.938;2023-06-19T03:56:53;36.05;;;33.25;;
26690;SDS011;14307;51.718;8.938;2023-06-19T03:59:19;38.60;;;35.78;;
26690;SDS011;14307;51.718;8.938;2023-06-19T04:01:46;35.47;;;32.75;;
26690;SDS011;14307;51.718;8.938;2023-06-19T04:04:15;36.17;;;33.17;;
26690;SDS011;14307;51.718;8.938;2023-06-19T04:06:42;35.08;;;32.25;;
26690;SDS011;14307;51.718;8.938;2023-06-19T04:09:08;36.38;;;33.38;;
26690;SDS011;14307;51.718;8.938;2023-06-19T04:11:36;45.35;;;41.95;;
26690;SDS011;14307;51.718;8.938;2023-06-19T04:14:02;45.45;;;41.95;;
26690;SDS011;14307;51.718;8.938;2023-06-19T04:16:29;44.53;;;41.22;;
26690;SDS011;14307;51.718;8.938;2023-06-19T04:18:56;43.70;;;40.22;;
26690;SDS011;14307;51.718;8.938;2023-06-19T04:21:23;42.45;;;39.25;;
26690;SDS011;14307;51.718;8.938;2023-06-19T04:23:50;40.13;;;37.15;;
26690;SDS011;14307;51.718;8.938;2023-06-19T04:26:17;41.05;;;38.05;;
26690;SDS011;14307;51.718;8.938;2023-06-19T04:28:45;40.70;;;37.70;;
26690;SDS011;14307;51.718;8.938;2023-06-19T04:31:12;41.92;;;38.63;;
26690;SDS011;14307;51.718;8.938;2023-06-19T04:33:39;41.22;;;38.13;;
26690;SDS011;14307;51.718;8.938;2023-06-19T04:36:08;41.50;;;38.40;;
26690;SDS011;14307;51.718;8.938;2023-06-19T04:38:36;41.53;;;38.38;;
26690;SDS011;14307;51.718;8.938;2023-06-19T04:41:02;41.35;;;38.35;;
26690;SDS011;14307;51.718;8.938;2023-06-19T04:43:29;40.45;;;37.25;;
26690;SDS011;14307;51.718;8.938;2023-06-19T04:45:56;40.08;;;36.97;;
26690;SDS011;14307;51.718;8.938;2023-06-19T04:48:23;50.47;;;47.17;;
26690;SDS011;14307;51.718;8.938;2023-06-19T04:50:51;41.47;;;38.38;;
26690;SDS011;14307;51.718;8.938;2023-06-19T04:53:18;40.10;;;37.20;;
26690;SDS011;14307;51.718;8.938;2023-06-19T04:55:45;39.28;;;36.17;;
26690;SDS011;14307;51.718;8.938;2023-06-19T04:58:12;38.25;;;35.35;;
26690;SDS011;14307;51.718;8.938;2023-06-19T05:00:39;38.13;;;34.92;;
26690;SDS011;14307;51.718;8.938;2023-06-19T05:03:05;38.75;;;35.78;;
26690;SDS011;14307;51.718;8.938;2023-06-19T05:05:32;38.28;;;35.28;;
26690;SDS011;14307;51.718;8.938;2023-06-19T05:07:59;38.28;;;35.35;;
26690;SDS011;14307;51.718;8.938;2023-06-19T05:10:27;38.53;;;35.60;;
26690;SDS011;14307;51.718;8.938;2023-06-19T05:12:54;39.67;;;36.55;;
26690;SDS011;14307;51.718;8.938;2023-06-19T05:15:20;39.47;;;36.17;;
26690;SDS011;14307;51.718;8.938;2023-06-19T05:17:47;38.78;;;35.67;;
26690;SDS011;14307;51.718;8.938;2023-06-19T05:20:14;39.42;;;36.53;;
26690;SDS011;14307;51.718;8.938;2023-06-19T05:22:41;38.67;;;35.70;;
26690;SDS011;14307;51.718;8.938;2023-06-19T05:25:08;37.58;;;34.78;;
26690;SDS011;14307;51.718;8.938;2023-06-19T05:27:35;38.05;;;34.90;;
26690;SDS011;14307;51.718;8.938;2023-06-19T05:30:02;36.75;;;33.92;;
26690;SDS011;14307;51.718;8.938;2023-06-19T05:32:30;38.40;;;35.40;;
26690;SDS011;14307;51.718;8.938;2023-06-19T05:34:57;37.53;;;34.60;;
26690;SDS011;14307;51.718;8.938;2023-06-19T05:37:24;38.90;;;35.95;;
26690;SDS011;14307;51.718;8.938;2023-06-19T05:39:50;38.95;;;36.05;;
26690;SDS011;14307;51.718;8.938;2023-06-19T05:42:17;39.35;;;36.38;;
26690;SDS011;14307;51.718;8.938;2023-06-19T05:44:44;40.45;;;37.40;;
26690;SDS011;14307;51.718;8.938;2023-06-19T05:47:11;40.63;;;37.47;;
26690;SDS011;14307;51.718;8.938;2023-06-19T05:49:37;40.25;;;37.25;;
26690;SDS011;14307;51.718;8.938;2023-06-19T05:52:07;40.45;;;37.35;;
26690;SDS011;14307;51.718;8.938;2023-06-19T05:54:34;42.13;;;38.95;;
26690;SDS011;14307;51.718;8.938;2023-06-19T05:57:00;42.63;;;39.10;;
26690;SDS011;14307;51.718;8.938;2023-06-19T05:59:27;42.17;;;38.97;;
26690;SDS011;14307;51.718;8.938;2023-06-19T06:01:54;44.17;;;40.53;;
26690;SDS011;14307;51.718;8.938;2023-06-19T06:04:21;40.58;;;37.47;;
26690;SDS011;14307;51.718;8.938;2023-06-19T06:06:48;42.10;;;38.90;;
26690;SDS011;14307;51.718;8.938;2023-06-19T06:09:15;40.75;;;37.55;;
26690;SDS011;14307;51.718;8.938;2023-06-19T06:11:42;39.50;;;36.50;;
26690;SDS011;14307;51.718;8.938;2023-06-19T06:14:09;38.85;;;35.95;;
26690;SDS011;14307;51.718;8.938;2023-06-19T06:16:38;39.25;;;36.22;;
26690;SDS011;14307;51.718;8.938;2023-06-19T06:19:06;38.40;;;35.65;;
26690;SDS011;14307;51.718;8.938;2023-06-19T06:21:32;37.97;;;35.28;;
26690;SDS011;14307;51.718;8.938;2023-06-19T06:24:00;39.08;;;36.05;;
26690;SDS011;14307;51.718;8.938;2023-06-19T06:26:27;38.65;;;35.75;;
26690;SDS011;14307;51.718;8.938;2023-06-19T06:28:54;40.15;;;36.95;;
26690;SDS011;14307;51.718;8.938;2023-06-19T06:31:24;39.03;;;36.15;;
26690;SDS011;14307;51.718;8.938;2023-06-19T06:33:51;42.10;;;38.90;;
26690;SDS011;14307;51.718;8.938;2023-06-19T06:36:18;42.83;;;39.70;;
26690;SDS011;14307;51.718;8.938;2023-06-19T06:39:01;43.45;;;40.47;;
26690;SDS011;14307;51.718;8.938;2023-06-19T06:41:27;44.67;;;41.50;;
26690;SDS011;14307;51.718;8.938;2023-06-19T06:43:54;41.92;;;38.95;;
26690;SDS011;14307;51.718;8.938;2023-06-19T06:46:21;44.53;;;41.42;;
26690;SDS011;14307;51.718;8.938;2023-06-19T06:48:49;45.25;;;42.03;;
26690;SDS011;14307;51.718;8.938;2023-06-19T06:51:16;43.88;;;40.92;;
26690;SDS011;14307;51.718;8.938;2023-06-19T06:53:43;42.28;;;39.47;;
26690;SDS011;14307;51.718;8.938;2023-06-19T06:56:09;43.30;;;40.10;;
26690;SDS011;14307;51.718;8.938;2023-06-19T06:58:36;44.70;;;41.42;;
26690;SDS011;14307;51.718;8.938;2023-06-19T07:01:05;45.47;;;42.38;;
26690;SDS011;14307;51.718;8.938;2023-06-19T07:03:31;44.97;;;42.13;;
26690;SDS011;14307;51.718;8.938;2023-06-19T07:05:58;45.10;;;42.17;;
26690;SDS011;14307;51.718;8.938;2023-06-19T07:08:25;46.15;;;43.22;;
26690;SDS011;14307;51.718;8.938;2023-06-19T07:10:52;47.78;;;44.67;;
26690;SDS011;14307;51.718;8.938;2023-06-19T07:13:19;44.25;;;41.17;;
26690;SDS011;14307;51.718;8.938;2023-06-19T07:15:46;43.75;;;40.85;;
26690;SDS011;14307;51.718;8.938;2023-06-19T07:18:13;44.60;;;41.80;;
26690;SDS011;14307;51.718;8.938;2023-06-19T07:20:39;43.83;;;41.03;;
26690;SDS011;14307;51.718;8.938;2023-06-19T07:23:06;44.95;;;41.75;;
26690;SDS011;14307;51.718;8.938;2023-06-19T07:25:33;46.50;;;43.60;;
26690;SDS011;14307;51.718;8.938;2023-06-19T07:28:00;45.42;;;42.63;;
26690;SDS011;14307;51.718;8.938;2023-06-19T07:30:27;47.17;;;44.25;;
26690;SDS011;14307;51.718;8.938;2023-06-19T07:32:54;45.33;;;42.15;;
26690;SDS011;14307;51.718;8.938;2023-06-19T07:35:21;48.03;;;44.67;;
26690;SDS011;14307;51.718;8.938;2023-06-19T07:37:47;46.50;;;43.70;;
26690;SDS011;14307;51.718;8.938;2023-06-19T07:40:14;46.80;;;43.92;;
26690;SDS011;14307;51.718;8.938;2023-06-19T07:42:41;46.17;;;43.03;;
26690;SDS011;14307;51.718;8.938;2023-06-19T07:45:10;45.42;;;42.58;;
26690;SDS011;14307;51.718;8.938;2023-06-19T07:47:38;45.22;;;42.45;;
26690;SDS011;14307;51.718;8.938;2023-06-19T07:50:05;45.35;;;42.35;;
26690;SDS011;14307;51.718;8.938;2023-06-19T07:52:32;45.92;;;43.03;;
26690;SDS011;14307;51.718;8.938;2023-06-19T07:54:59;46.75;;;43.75;;
26690;SDS011;14307;51.718;8.938;2023-06-19T07:57:26;47.75;;;44.47;;
26690;SDS011;14307;51.718;8.938;2023-06-19T07:59:53;44.05;;;41.25;;
26690;SDS011;14307;51.718;8.938;2023-06-19T08:02:21;46.63;;;43.63;;
26690;SDS011;14307;51.718;8.938;2023-06-19T08:04:48;47.15;;;43.85;;
26690;SDS011;14307;51.718;8.938;2023-06-19T08:07:16;48.05;;;44.80;;
26690;SDS011;14307;51.718;8.938;2023-06-19T08:09:43;46.45;;;43.15;;
26690;SDS011;14307;51.718;8.938;2023-06-19T08:12:09;46.08;;;43.03;;
26690;SDS011;14307;51.718;8.938;2023-06-19T08:14:36;45.85;;;42.85;;
26690;SDS011;14307;51.718;8.938;2023-06-19T08:17:04;47.40;;;44.33;;
26690;SDS011;14307;51.718;8.938;2023-06-19T08:19:32;47.50;;;44.40;;
26690;SDS011;14307;51.718;8.938;2023-06-19T08:21:58;46.55;;;43.55;;
26690;SDS011;14307;51.718;8.938;2023-06-19T08:24:25;49.15;;;45.75;;
26690;SDS011;14307;51.718;8.938;2023-06-19T08:26:52;49.15;;;46.00;;
26690;SDS011;14307;51.718;8.938;2023-06-19T08:29:19;47.50;;;44.50;;
26690;SDS011;14307;51.718;8.938;2023-06-19T08:31:46;46.25;;;43.13;;
26690;SDS011;14307;51.718;8.938;2023-06-19T08:34:13;45.13;;;42.22;;
26690;SDS011;14307;51.718;8.938;2023-06-19T08:36:39;48.15;;;44.60;;
26690;SDS011;14307;51.718;8.938;2023-06-19T08:39:06;49.58;;;46.08;;
26690;SDS011;14307;51.718;8.938;2023-06-19T08:41:36;48.30;;;44.80;;
26690;SDS011;14307;51.718;8.938;2023-06-19T08:44:04;46.90;;;43.38;;
26690;SDS011;14307;51.718;8.938;2023-06-19T08:46:31;49.35;;;46.05;;
26690;SDS011;14307;51.718;8.938;2023-06-19T08:48:58;46.55;;;43.25;;
26690;SDS011;14307;51.718;8.938;2023-06-19T08:51:27;46.35;;;43.10;;
26690;SDS011;14307;51.718;8.938;2023-06-19T08:53:55;43.47;;;40.47;;
26690;SDS011;14307;51.718;8.938;2023-06-19T08:56:23;44.30;;;41.40;;
26690;SDS011;14307;51.718;8.938;2023-06-19T08:58:50;45.15;;;42.15;;
26690;SDS011;14307;51.718;8.938;2023-06-19T09:01:20;46.05;;;42.97;;
26690;SDS011;14307;51.718;8.938;2023-06-19T09:03:46;41.83;;;39.15;;
26690;SDS011;14307;51.718;8.938;2023-06-19T09:06:18;43.63;;;40.63;;
26690;SDS011;14307;51.718;8.938;2023-06-19T09:08:46;46.95;;;43.85;;
26690;SDS011;14307;51.718;8.938;2023-06-19T09:11:24;45.28;;;42.45;;
26690;SDS011;14307;51.718;8.938;2023-06-19T09:13:56;43.40;;;40.63;;
26690;SDS011;14307;51.718;8.938;2023-06-19T09:16:28;45.40;;;42.47;;
26690;SDS011;14307;51.718;8.938;2023-06-19T09:19:04;46.05;;;43.05;;
26690;SDS011;14307;51.718;8.938;2023-06-19T09:21:31;44.53;;;41.05;;
26690;SDS011;14307;51.718;8.938;2023-06-19T09:24:07;45.30;;;42.40;;
26690;SDS011;14307;51.718;8.938;2023-06-19T09:26:35;47.95;;;44.75;;
26690;SDS011;14307;51.718;8.938;2023-06-19T09:29:12;45.15;;;42.15;;
26690;SDS011;14307;51.718;8.938;2023-06-19T09:31:45;45.13;;;42.30;;
26690;SDS011;14307;51.718;8.938;2023-06-19T09:34:12;43.17;;;40.15;;
26690;SDS011;14307;51.718;8.938;2023-06-19T09:36:39;45.05;;;42.17;;
26690;SDS011;14307;51.718;8.938;2023-06-19T09:39:06;42.45;;;39.58;;
26690;SDS011;14307;51.718;8.938;2023-06-19T09:41:34;41.28;;;38.67;;
26690;SDS011;14307;51.718;8.938;2023-06-19T09:44:03;42.22;;;39.63;;
26690;SDS011;14307;51.718;8.938;2023-06-19T09:46:38;40.90;;;38.40;;
26690;SDS011;14307;51.718;8.938;2023-06-19T09:49:10;41.00;;;38.42;;
26690;SDS011;14307;51.718;8.938;2023-06-19T09:51:41;43.53;;;39.50;;
26690;SDS011;14307;51.718;8.938;2023-06-19T09:54:09;41.10;;;38.60;;
26690;SDS011;14307;51.718;8.938;2023-06-19T09:56:36;39.83;;;37.42;;
26690;SDS011;14307;51.718;8.938;2023-06-19T09:59:04;40.08;;;37.42;;
26690;SDS011;14307;51.718;8.938;2023-06-19T10:01:31;41.10;;;38.38;;
26690;SDS011;14307;51.718;8.938;2023-06-19T10:04:06;43.30;;;40.50;;
26690;SDS011;14307;51.718;8.938;2023-06-19T10:06:43;39.03;;;36.53;;
26690;SDS011;14307;51.718;8.938;2023-06-19T10:09:15;38.70;;;36.20;;
26690;SDS011;14307;51.718;8.938;2023-06-19T10:11:46;41.35;;;38.45;;
26690;SDS011;14307;51.718;8.938;2023-06-19T10:14:14;39.55;;;36.97;;
26690;SDS011;14307;51.718;8.938;2023-06-19T10:16:44;43.05;;;40.15;;
26690;SDS011;14307;51.718;8.938;2023-06-19T10:19:13;42.33;;;39.72;;
26690;SDS011;14307;51.718;8.938;2023-06-19T10:21:46;40.60;;;38.10;;
26690;SDS011;14307;51.718;8.938;2023-06-19T10:24:17;42.03;;;39.53;;
26690;SDS011;14307;51.718;8.938;2023-06-19T10:26:59;42.72;;;40.08;;
26690;SDS011;14307;51.718;8.938;2023-06-19T10:29:39;42.45;;;39.63;;
26690;SDS011;14307;51.718;8.938;2023-06-19T10:32:14;41.10;;;38.60;;
26690;SDS011;14307;51.718;8.938;2023-06-19T10:34:45;42.17;;;39.58;;
26690;SDS011;14307;51.718;8.938;2023-06-19T10:37:15;43.28;;;40.60;;
26690;SDS011;14307;51.718;8.938;2023-06-19T10:39:42;42.88;;;40.38;;
26690;SDS011;14307;51.718;8.938;2023-06-19T10:42:10;43.83;;;41.33;;
26690;SDS011;14307;51.718;8.938;2023-06-19T10:44:37;44.15;;;41.35;;
26690;SDS011;14307;51.718;8.938;2023-06-19T10:47:05;42.78;;;40.28;;
26690;SDS011;14307;51.718;8.938;2023-06-19T10:49:33;44.42;;;41.65;;
26690;SDS011;14307;51.718;8.938;2023-06-19T10:52:01;44.53;;;41.78;;
26690;SDS011;14307;51.718;8.938;2023-06-19T10:54:28;41.97;;;39.38;;
26690;SDS011;14307;51.718;8.938;2023-06-19T10:56:55;45.45;;;42.65;;
26690;SDS011;14307;51.718;8.938;2023-06-19T10:59:23;46.38;;;43.65;;
26690;SDS011;14307;51.718;8.938;2023-06-19T11:01:51;42.47;;;39.80;;
26690;SDS011;14307;51.718;8.938;2023-06-19T11:04:19;42.65;;;39.85;;
26690;SDS011;14307;51.718;8.938;2023-06-19T11:06:45;43.95;;;40.85;;
26690;SDS011;14307;51.718;8.938;2023-06-19T11:09:14;46.00;;;43.20;;
26690;SDS011;14307;51.718;8.938;2023-06-19T11:11:42;45.10;;;42.40;;
26690;SDS011;14307;51.718;8.938;2023-06-19T11:14:11;41.20;;;38.70;;
26690;SDS011;14307;51.718;8.938;2023-06-19T11:16:42;40.88;;;38.28;;
26690;SDS011;14307;51.718;8.938;2023-06-19T11:19:18;40.47;;;37.88;;
26690;SDS011;14307;51.718;8.938;2023-06-19T11:21:47;44.03;;;41.22;;
26690;SDS011;14307;51.718;8.938;2023-06-19T11:24:15;41.20;;;38.53;;
26690;SDS011;14307;51.718;8.938;2023-06-19T11:26:49;41.25;;;38.63;;
26690;SDS011;14307;51.718;8.938;2023-06-19T11:29:21;44.15;;;41.45;;
26690;SDS011;14307;51.718;8.938;2023-06-19T11:31:51;44.65;;;41.78;;
26690;SDS011;14307;51.718;8.938;2023-06-19T11:34:30;43.78;;;40.88;;
26690;SDS011;14307;51.718;8.938;2023-06-19T11:36:58;42.40;;;39.70;;
26690;SDS011;14307;51.718;8.938;2023-06-19T11:39:25;46.08;;;42.75;;
26690;SDS011;14307;51.718;8.938;2023-06-19T11:41:51;43.75;;;41.05;;
26690;SDS011;14307;51.718;8.938;2023-06-19T11:44:20;40.85;;;37.97;;
26690;SDS011;14307;51.718;8.938;2023-06-19T11:46:48;42.85;;;40.17;;
26690;SDS011;14307;51.718;8.938;2023-06-19T11:49:18;45.28;;;42.38;;
26690;SDS011;14307;51.718;8.938;2023-06-19T11:51:46;44.88;;;41.90;;
26690;SDS011;14307;51.718;8.938;2023-06-19T11:54:14;45.20;;;42.50;;
26690;SDS011;14307;51.718;8.938;2023-06-19T11:56:41;43.58;;;40.95;;
26690;SDS011;14307;51.718;8.938;2023-06-19T11:59:08;47.05;;;44.25;;
26690;SDS011;14307;51.718;8.938;2023-06-19T12:01:35;41.97;;;39.22;;
26690;SDS011;14307;51.718;8.938;2023-06-19T12:04:02;44.08;;;41.47;;
26690;SDS011;14307;51.718;8.938;2023-06-19T12:06:30;47.95;;;45.15;;
26690;SDS011;14307;51.718;8.938;2023-06-19T12:08:57;40.95;;;38.45;;
26690;SDS011;14307;51.718;8.938;2023-06-19T12:11:25;45.70;;;43.05;;
26690;SDS011;14307;51.718;8.938;2023-06-19T12:13:52;39.85;;;37.50;;
26690;SDS011;14307;51.718;8.938;2023-06-19T12:16:23;44.80;;;42.10;;
26690;SDS011;14307;51.718;8.938;2023-06-19T12:18:52;41.03;;;38.47;;
26690;SDS011;14307;51.718;8.938;2023-06-19T12:21:19;43.85;;;41.05;;
26690;SDS011;14307;51.718;8.938;2023-06-19T12:24:01;45.50;;;42.70;;
26690;SDS011;14307;51.718;8.938;2023-06-19T12:26:28;45.50;;;42.70;;
26690;SDS011;14307;51.718;8.938;2023-06-19T12:28:55;43.42;;;40.83;;
26690;SDS011;14307;51.718;8.938;2023-06-19T12:31:22;39.70;;;37.30;;
26690;SDS011;14307;51.718;8.938;2023-06-19T12:33:48;40.65;;;38.15;;
26690;SDS011;14307;51.718;8.938;2023-06-19T12:36:15;40.35;;;37.83;;
26690;SDS011;14307;51.718;8.938;2023-06-19T12:38:42;43.88;;;41.08;;
26690;SDS011;14307;51.718;8.938;2023-06-19T12:41:09;43.25;;;40.63;;
26690;SDS011;14307;51.718;8.938;2023-06-19T12:43:38;39.83;;;37.33;;
26690;SDS011;14307;51.718;8.938;2023-06-19T12:46:05;39.15;;;36.85;;
26690;SDS011;14307;51.718;8.938;2023-06-19T12:48:32;41.92;;;39.33;;
26690;SDS011;14307;51.718;8.938;2023-06-19T12:50:59;46.60;;;43.83;;
26690;SDS011;14307;51.718;8.938;2023-06-19T12:53:26;40.08;;;37.67;;
26690;SDS011;14307;51.718;8.938;2023-06-19T12:55:56;46.03;;;42.72;;
26690;SDS011;14307;51.718;8.938;2023-06-19T12:58:29;43.80;;;41.20;;
26690;SDS011;14307;51.718;8.938;2023-06-19T13:00:55;44.47;;;41.88;;
26690;SDS011;14307;51.718;8.938;2023-06-19T13:03:22;43.67;;;40.97;;
26690;SDS011;14307;51.718;8.938;2023-06-19T13:05:49;44.97;;;42.20;;
26690;SDS011;14307;51.718;8.938;2023-06-19T13:08:16;44.60;;;41.58;;
26690;SDS011;14307;51.718;8.938;2023-06-19T13:10:43;41.35;;;38.63;;
26690;SDS011;14307;51.718;8.938;2023-06-19T13:13:10;42.90;;;40.20;;
26690;SDS011;14307;51.718;8.938;2023-06-19T13:15:38;40.47;;;38.08;;
26690;SDS011;14307;51.718;8.938;2023-06-19T13:18:05;43.75;;;41.05;;
26690;SDS011;14307;51.718;8.938;2023-06-19T13:20:32;40.38;;;37.97;;
26690;SDS011;14307;51.718;8.938;2023-06-19T13:22:59;41.00;;;38.50;;
26690;SDS011;14307;51.718;8.938;2023-06-19T13:25:25;43.08;;;40.38;;
26690;SDS011;14307;51.718;8.938;2023-06-19T13:27:52;43.83;;;41.20;;
26690;SDS011;14307;51.718;8.938;2023-06-19T13:30:19;40.83;;;38.42;;
26690;SDS011;14307;51.718;8.938;2023-06-19T13:32:46;43.35;;;40.55;;
26690;SDS011;14307;51.718;8.938;2023-06-19T13:35:13;43.90;;;41.20;;
26690;SDS011;14307;51.718;8.938;2023-06-19T13:37:40;44.53;;;41.83;;
26690;SDS011;14307;51.718;8.938;2023-06-19T13:40:07;42.67;;;40.05;;
26690;SDS011;14307;51.718;8.938;2023-06-19T13:42:34;44.95;;;42.10;;
26690;SDS011;14307;51.718;8.938;2023-06-19T13:45:05;44.17;;;41.47;;
26690;SDS011;14307;51.718;8.938;2023-06-19T13:47:32;43.97;;;41.17;;
26690;SDS011;14307;51.718;8.938;2023-06-19T13:49:59;45.35;;;42.58;;
26690;SDS011;14307;51.718;8.938;2023-06-19T13:52:26;43.15;;;40.25;;
26690;SDS011;14307;51.718;8.938;2023-06-19T13:54:53;40.28;;;37.88;;
26690;SDS011;14307;51.718;8.938;2023-06-19T13:57:21;45.08;;;42.28;;
26690;SDS011;14307;51.718;8.938;2023-06-19T13:59:48;42.33;;;39.65;;
26690;SDS011;14307;51.718;8.938;2023-06-19T14:02:16;45.17;;;42.28;;
26690;SDS011;14307;51.718;8.938;2023-06-19T14:04:43;42.88;;;40.10;;
26690;SDS011;14307;51.718;8.938;2023-06-19T14:07:09;41.60;;;39.00;;
26690;SDS011;14307;51.718;8.938;2023-06-19T14:09:37;42.55;;;39.95;;
26690;SDS011;14307;51.718;8.938;2023-06-19T14:12:05;43.17;;;40.42;;
26690;SDS011;14307;51.718;8.938;2023-06-19T14:14:31;41.78;;;39.05;;
26690;SDS011;14307;51.718;8.938;2023-06-19T14:16:58;41.45;;;38.83;;
26690;SDS011;14307;51.718;8.938;2023-06-19T14:19:29;44.10;;;41.20;;
26690;SDS011;14307;51.718;8.938;2023-06-19T14:21:57;42.35;;;39.55;;
26690;SDS011;14307;51.718;8.938;2023-06-19T14:24:24;43.42;;;40.63;;
26690;SDS011;14307;51.718;8.938;2023-06-19T14:26:51;45.28;;;42.30;;